createdAt,value
2022-10-18T00:02:08.801Z,84.91
2022-10-18T00:04:39.068Z,85.90
2022-10-18T00:07:07.572Z,85.71
2022-10-18T00:09:36.075Z,85.78
2022-10-18T00:12:04.994Z,85.01
2022-10-18T00:14:33.463Z,84.92
2022-10-18T00:17:01.879Z,86.12
2022-10-18T00:19:30.331Z,84.98
2022-10-18T00:22:00.202Z,85.46
2022-10-18T00:24:28.655Z,85.80
2022-10-18T00:26:57.286Z,86.17
2022-10-18T00:29:25.774Z,86.30
2022-10-18T00:31:54.241Z,85.65
2022-10-18T00:34:22.679Z,86.40
2022-10-18T00:36:51.257Z,85.55
2022-10-18T00:39:22.664Z,86.11
2022-10-18T00:41:51.595Z,85.76
2022-10-18T00:44:57.658Z,85.42
2022-10-18T00:47:27.480Z,85.08
2022-10-18T00:49:59.534Z,85.67
2022-10-18T00:52:33.354Z,85.35
2022-10-18T00:55:04.224Z,84.67
2022-10-18T00:57:33.320Z,86.04
2022-10-18T01:00:02.091Z,85.69
2022-10-18T01:02:33.598Z,85.36
2022-10-18T01:05:02.202Z,84.53
2022-10-18T01:07:44.437Z,85.29
2022-10-18T01:10:27.781Z,84.87
2022-10-18T01:13:11.885Z,85.51
2022-10-18T01:15:51.143Z,86.39
2022-10-18T01:18:26.568Z,85.31
2022-10-18T01:21:27.800Z,86.48
2022-10-18T01:24:37.201Z,85.19
2022-10-18T01:27:28.593Z,87.43
2022-10-18T01:30:20.923Z,87.66
2022-10-18T01:32:52.957Z,85.81
2022-10-18T01:35:28.724Z,87.91
2022-10-18T01:38:01.246Z,87.23
2022-10-18T01:40:31.901Z,87.43
2022-10-18T01:43:01.724Z,87.51
2022-10-18T01:45:33.068Z,88.38
2022-10-18T01:48:03.064Z,86.31
2022-10-18T01:50:32.797Z,87.81
2022-10-18T01:53:01.578Z,86.79
2022-10-18T01:55:43.594Z,86.82
2022-10-18T01:58:23.555Z,86.92
2022-10-18T02:01:04.004Z,87.32
2022-10-18T02:03:35.082Z,86.78
2022-10-18T02:06:09.457Z,87.01
2022-10-18T02:08:43.756Z,86.25
2022-10-18T02:11:15.015Z,86.62
2022-10-18T02:13:47.344Z,87.33
2022-10-18T02:16:20.824Z,86.16
2022-10-18T02:18:53.038Z,86.82
2022-10-18T02:21:23.554Z,87.09
2022-10-18T02:23:53.453Z,88.17
2022-10-18T02:26:21.891Z,88.50
2022-10-18T02:28:50.513Z,86.53
2022-10-18T02:31:27.245Z,86.31
2022-10-18T02:33:59.561Z,86.51
2022-10-18T02:36:32.574Z,86.16
2022-10-18T02:39:05.612Z,86.67
2022-10-18T02:41:34.721Z,87.66
2022-10-18T02:44:03.146Z,87.89
2022-10-18T02:46:33.021Z,86.75
2022-10-18T02:49:01.500Z,87.40
2022-10-18T02:51:29.896Z,87.09
2022-10-18T02:53:58.355Z,88.27
2022-10-18T02:56:26.771Z,87.28
2022-10-18T02:58:55.174Z,88.12
2022-10-18T03:01:23.715Z,87.08
2022-10-18T03:03:53.801Z,87.44
2022-10-18T03:06:22.234Z,87.55
2022-10-18T03:08:50.674Z,88.08
2022-10-18T03:11:19.079Z,86.05
2022-10-18T03:13:47.552Z,87.71
2022-10-18T03:16:16.078Z,86.99
2022-10-18T03:18:44.895Z,87.67
2022-10-18T03:21:14.823Z,87.03
2022-10-18T03:23:43.626Z,87.01
2022-10-18T03:26:12.061Z,88.13
2022-10-18T03:28:40.550Z,86.97
2022-10-18T03:31:09.139Z,86.80
2022-10-18T03:33:37.665Z,87.25
2022-10-18T03:36:06.425Z,87.76
2022-10-18T03:38:36.198Z,86.57
2022-10-18T03:41:04.480Z,86.94
2022-10-18T03:43:32.774Z,87.18
2022-10-18T03:46:01.481Z,87.10
2022-10-18T03:48:30.064Z,86.33
2022-10-18T03:50:58.599Z,88.55
2022-10-18T03:53:27.106Z,88.62
2022-10-18T03:55:57.253Z,87.56
2022-10-18T03:58:25.722Z,88.50
2022-10-18T04:00:55.756Z,87.54
2022-10-18T04:03:24.587Z,87.79
2022-10-18T04:05:53.014Z,88.79
2022-10-18T04:08:21.501Z,89.18
2022-10-18T04:10:49.946Z,87.75
2022-10-18T04:13:19.809Z,87.95
2022-10-18T04:15:48.258Z,89.19
2022-10-18T04:18:16.728Z,88.49
2022-10-18T04:20:45.150Z,88.31
2022-10-18T04:23:13.608Z,87.84
2022-10-18T04:28:15.422Z,87.92
2022-10-18T04:30:45.249Z,88.05
2022-10-18T04:33:13.672Z,88.31
2022-10-18T04:35:42.084Z,88.71
2022-10-18T04:38:10.621Z,88.40
2022-10-18T04:40:39.103Z,88.35
2022-10-18T04:43:07.561Z,88.16
2022-10-18T04:45:36.137Z,87.83
2022-10-18T04:48:06.582Z,87.78
2022-10-18T04:50:35.052Z,88.02
2022-10-18T04:53:15.543Z,87.41
2022-10-18T04:55:45.196Z,86.03
2022-10-18T04:58:13.846Z,87.37
2022-10-18T05:00:43.433Z,85.82
2022-10-18T05:03:15.112Z,86.80
2022-10-18T05:06:02.717Z,86.49
2022-10-18T05:08:32.551Z,87.41
2022-10-18T05:11:01.880Z,87.51
2022-10-18T05:13:31.102Z,87.99
2022-10-18T05:16:00.660Z,87.54
2022-10-18T05:18:30.674Z,88.48
2022-10-18T05:20:59.785Z,87.57
2022-10-18T05:23:28.183Z,88.02
2022-10-18T05:25:56.641Z,89.02
2022-10-18T05:28:41.482Z,88.65
2022-10-18T05:31:12.166Z,88.19
2022-10-18T05:33:41.959Z,88.13
2022-10-18T05:36:11.087Z,88.26
2022-10-18T05:38:43.125Z,88.54
2022-10-18T05:41:12.410Z,88.00
2022-10-18T05:43:41.585Z,88.10
2022-10-18T05:46:14.555Z,86.76
2022-10-18T05:48:45.782Z,87.57
2022-10-18T05:51:14.204Z,87.54
2022-10-18T05:53:42.745Z,87.31
2022-10-18T05:56:12.339Z,86.74
2022-10-18T05:58:41.999Z,87.05
2022-10-18T06:01:11.089Z,87.37
2022-10-18T06:03:39.516Z,86.96
2022-10-18T06:06:10.860Z,86.81
2022-10-18T06:08:40.785Z,87.81
2022-10-18T06:11:10.345Z,87.91
2022-10-18T06:13:41.426Z,87.33
2022-10-18T06:16:10.593Z,87.85
2022-10-18T06:18:39.521Z,87.96
2022-10-18T06:21:10.239Z,87.95
2022-10-18T06:23:38.697Z,86.73
2022-10-18T06:26:08.534Z,88.35
2022-10-18T06:28:37.701Z,87.95
2022-10-18T06:31:07.158Z,87.90
2022-10-18T06:33:36.623Z,88.25
2022-10-18T06:36:06.977Z,88.14
2022-10-18T06:38:36.848Z,86.52
2022-10-18T06:41:06.470Z,86.80
2022-10-18T06:43:34.918Z,86.94
2022-10-18T06:46:06.800Z,87.79
2022-10-18T06:48:35.971Z,87.76
2022-10-18T06:51:06.608Z,87.63
2022-10-18T06:53:44.073Z,87.74
2022-10-18T06:56:17.220Z,87.28
2022-10-18T06:58:45.651Z,87.29
2022-10-18T07:01:16.631Z,87.33
2022-10-18T07:03:46.653Z,87.66
2022-10-18T07:06:18.945Z,87.91
2022-10-18T07:08:50.158Z,87.83
2022-10-18T07:11:20.394Z,87.69
2022-10-18T07:13:48.776Z,86.85
2022-10-18T07:16:18.965Z,86.92
2022-10-18T07:18:50.245Z,87.65
2022-10-18T07:21:20.529Z,86.09
2022-10-18T07:23:51.732Z,85.30
2022-10-18T07:26:22.390Z,84.81
2022-10-18T07:28:54.480Z,84.72
2022-10-18T07:31:23.972Z,84.65
2022-10-18T07:33:52.733Z,82.60
2022-10-18T07:36:22.190Z,82.28
2022-10-18T07:38:52.893Z,81.03
2022-10-18T07:41:21.732Z,79.89
2022-10-18T07:43:52.152Z,80.42
2022-10-18T07:46:22.282Z,78.86
2022-10-18T07:48:51.132Z,78.43
2022-10-18T07:51:20.544Z,77.75
2022-10-18T07:53:49.202Z,77.73
2022-10-18T07:56:21.637Z,77.10
2022-10-18T07:58:52.319Z,77.00
2022-10-18T08:01:22.260Z,76.96
2022-10-18T08:03:51.761Z,76.15
2022-10-18T08:06:22.539Z,75.76
2022-10-18T08:08:51.202Z,75.17
2022-10-18T08:11:22.985Z,75.68
2022-10-18T08:13:51.786Z,73.08
2022-10-18T08:16:21.980Z,72.95
2022-10-18T08:18:51.246Z,70.20
2022-10-18T08:21:21.494Z,71.77
2022-10-18T08:23:50.215Z,70.39
2022-10-18T08:26:22.032Z,68.96
2022-10-18T08:28:58.385Z,67.79
2022-10-18T08:31:38.345Z,68.12
2022-10-18T08:34:06.784Z,66.21
2022-10-18T08:36:35.208Z,65.91
2022-10-18T08:39:03.905Z,67.51
2022-10-18T08:41:52.671Z,66.68
2022-10-18T08:44:23.891Z,65.88
2022-10-18T08:46:56.773Z,65.98
2022-10-18T08:49:29.265Z,67.82
2022-10-18T08:51:59.046Z,68.01
2022-10-18T08:54:34.041Z,67.71
2022-10-18T08:57:08.011Z,68.65
2022-10-18T08:59:40.402Z,64.93
2022-10-18T09:02:27.253Z,64.28
2022-10-18T09:05:04.281Z,62.52
2022-10-18T09:07:59.033Z,62.11
2022-10-18T09:10:40.424Z,62.73
2022-10-18T09:13:28.570Z,61.05
2022-10-18T09:15:59.756Z,61.09
2022-10-18T09:18:45.147Z,58.79
2022-10-18T09:21:20.241Z,58.31
2022-10-18T09:23:51.112Z,59.39
2022-10-18T09:26:21.910Z,56.72
2022-10-18T09:29:09.708Z,58.20
2022-10-18T09:31:43.589Z,58.57
2022-10-18T09:34:16.060Z,60.21
2022-10-18T09:36:45.602Z,59.41
2022-10-18T09:39:16.192Z,58.33
2022-10-18T09:41:50.634Z,59.44
2022-10-18T09:44:25.089Z,59.59
2022-10-18T09:46:58.663Z,59.14
2022-10-18T09:49:31.088Z,60.49
2022-10-18T09:52:03.124Z,59.74
2022-10-18T09:54:34.962Z,56.24
2022-10-18T09:57:06.136Z,56.04
2022-10-18T09:59:42.149Z,56.35
2022-10-18T10:02:14.581Z,56.60
2022-10-18T10:04:43.129Z,57.22
2022-10-18T10:07:15.962Z,58.48
2022-10-18T10:09:47.563Z,59.00
2022-10-18T10:12:32.092Z,57.71
2022-10-18T10:15:19.430Z,58.85
2022-10-18T10:17:56.108Z,59.12
2022-10-18T10:20:28.358Z,59.27
2022-10-18T10:23:07.536Z,60.12
2022-10-18T10:25:38.647Z,60.18
2022-10-18T10:28:14.046Z,59.21
2022-10-18T10:30:43.939Z,57.45
2022-10-18T10:33:34.596Z,57.74
2022-10-18T10:36:06.853Z,56.40
2022-10-18T10:38:35.342Z,56.04
2022-10-18T10:41:03.875Z,56.31
2022-10-18T10:43:39.380Z,56.16
2022-10-18T10:46:13.074Z,53.92
2022-10-18T10:48:48.281Z,53.56
2022-10-18T10:51:19.816Z,52.19
2022-10-18T10:53:52.350Z,51.65
2022-10-18T10:56:26.778Z,51.02
2022-10-18T10:58:59.025Z,50.47
2022-10-18T11:01:32.334Z,50.87
2022-10-18T11:04:04.373Z,50.85
2022-10-18T11:06:45.922Z,49.09
2022-10-18T11:09:42.848Z,49.03
2022-10-18T11:12:27.735Z,49.12
2022-10-18T11:15:09.834Z,47.88
2022-10-18T11:17:44.951Z,47.33
2022-10-18T11:20:22.322Z,46.58
2022-10-18T11:23:01.144Z,46.14
2022-10-18T11:25:42.576Z,46.71
2022-10-18T11:28:17.387Z,46.37
2022-10-18T11:30:59.862Z,47.75
2022-10-18T11:34:07.046Z,49.44
2022-10-18T11:36:36.817Z,49.94
2022-10-18T11:39:14.683Z,50.50
2022-10-18T11:41:52.032Z,51.15
2022-10-18T11:44:28.997Z,49.25
2022-10-18T11:47:06.604Z,49.04
2022-10-18T11:49:56.247Z,49.13
2022-10-18T11:52:32.845Z,49.56
2022-10-18T11:55:11.876Z,47.96
2022-10-18T11:57:58.561Z,46.32
2022-10-18T12:00:39.466Z,46.40
2022-10-18T12:03:31.302Z,47.28
2022-10-18T12:06:05.301Z,47.46
2022-10-18T12:08:37.514Z,48.68
2022-10-18T12:11:11.241Z,49.20
2022-10-18T12:13:45.686Z,49.67
2022-10-18T12:16:15.117Z,51.60
2022-10-18T12:18:50.767Z,51.75
2022-10-18T12:21:25.737Z,51.75
2022-10-18T12:23:59.461Z,51.41
2022-10-18T12:26:29.316Z,52.93
2022-10-18T12:29:08.573Z,53.35
2022-10-18T12:31:43.542Z,54.03
2022-10-18T12:34:30.067Z,54.24
2022-10-18T12:37:21.800Z,53.64
2022-10-18T12:40:13.196Z,54.17
2022-10-18T12:42:45.249Z,52.94
2022-10-18T12:45:30.070Z,54.46
2022-10-18T12:48:00.946Z,54.83
2022-10-18T12:50:33.849Z,54.69
2022-10-18T12:53:08.173Z,54.44
2022-10-18T12:55:38.971Z,52.81
2022-10-18T12:58:26.005Z,54.55
2022-10-18T13:00:57.313Z,53.58
2022-10-18T13:03:54.518Z,51.01
2022-10-18T13:06:24.507Z,50.61
2022-10-18T13:09:21.983Z,53.04
2022-10-18T13:11:51.943Z,52.45
2022-10-18T13:14:44.194Z,52.27
2022-10-18T13:17:31.622Z,52.74
2022-10-18T13:20:25.946Z,54.30
2022-10-18T13:23:08.784Z,55.44
2022-10-18T13:25:53.412Z,55.69
2022-10-18T13:28:31.837Z,55.29
2022-10-18T13:31:09.590Z,56.11
2022-10-18T13:33:41.843Z,57.03
2022-10-18T13:36:23.589Z,55.10
2022-10-18T13:39:05.825Z,54.54
2022-10-18T13:42:25.237Z,55.53
2022-10-18T13:44:55.154Z,55.03
2022-10-18T13:47:39.293Z,56.08
2022-10-18T13:50:34.454Z,56.98
2022-10-18T13:53:41.642Z,57.22
2022-10-18T13:56:31.530Z,57.39
2022-10-18T13:59:16.853Z,58.55
2022-10-18T14:02:02.837Z,58.72
2022-10-18T14:04:43.461Z,59.05
2022-10-18T14:07:12.974Z,59.94
2022-10-18T14:09:48.846Z,59.55
2022-10-18T14:12:27.617Z,59.63
2022-10-18T14:15:00.751Z,58.74
2022-10-18T14:20:29.319Z,59.29
2022-10-18T14:23:04.083Z,59.92
2022-10-18T14:25:35.728Z,60.56
2022-10-18T14:28:14.395Z,60.93
2022-10-18T14:30:54.773Z,60.32
2022-10-18T14:33:31.210Z,59.83
2022-10-18T14:36:02.362Z,61.68
2022-10-18T14:38:30.987Z,62.95
2022-10-18T14:41:15.429Z,62.04
2022-10-18T14:43:44.389Z,61.99
2022-10-18T14:46:21.997Z,61.45
2022-10-18T14:48:57.269Z,61.17
2022-10-18T14:51:26.624Z,61.49
2022-10-18T14:53:55.872Z,60.94
2022-10-18T14:56:28.493Z,61.79
2022-10-18T14:58:58.500Z,61.80
2022-10-18T15:01:30.745Z,62.65
2022-10-18T15:04:04.906Z,62.67
2022-10-18T15:06:33.876Z,62.24
2022-10-18T15:09:04.965Z,62.62
2022-10-18T15:11:34.109Z,63.32
2022-10-18T15:14:06.718Z,63.45
2022-10-18T15:16:38.538Z,64.00
2022-10-18T15:19:29.353Z,63.12
2022-10-18T15:25:23.304Z,63.87
2022-10-18T15:27:54.250Z,64.57
2022-10-18T15:30:27.609Z,64.37
2022-10-18T15:32:57.960Z,65.13
2022-10-18T15:35:31.268Z,63.88
2022-10-18T15:38:02.411Z,65.13
2022-10-18T15:40:38.894Z,64.96
2022-10-18T15:43:34.935Z,65.15
2022-10-18T15:46:06.735Z,65.33
2022-10-18T15:48:39.033Z,65.83
2022-10-18T15:51:13.609Z,66.43
2022-10-18T15:53:45.632Z,66.60
2022-10-18T15:56:29.065Z,67.08
2022-10-18T15:58:59.199Z,66.34
2022-10-18T16:01:37.279Z,66.86
2022-10-18T16:04:18.124Z,67.47
2022-10-18T16:06:47.985Z,67.53
2022-10-18T16:09:18.869Z,66.91
2022-10-18T16:11:54.130Z,67.82
2022-10-18T16:14:26.477Z,68.42
2022-10-18T16:16:56.545Z,67.27
2022-10-18T16:19:24.980Z,67.91
2022-10-18T16:21:55.814Z,68.96
2022-10-18T16:24:24.412Z,68.22
2022-10-18T16:26:54.042Z,69.05
2022-10-18T16:29:26.152Z,68.20
2022-10-18T16:31:57.854Z,69.22
2022-10-18T16:34:27.436Z,69.66
2022-10-18T16:36:57.030Z,69.36
2022-10-18T16:39:25.555Z,69.93
2022-10-18T16:41:53.966Z,70.00
2022-10-18T16:44:22.400Z,70.33
2022-10-18T16:46:53.825Z,70.38
2022-10-18T16:49:25.838Z,70.83
2022-10-18T16:51:55.154Z,70.51
2022-10-18T16:54:24.982Z,70.41
2022-10-18T16:56:53.879Z,71.03
2022-10-18T16:59:25.159Z,71.46
2022-10-18T17:01:53.732Z,71.50
2022-10-18T17:04:22.219Z,72.33
2022-10-18T17:06:50.723Z,72.58
2022-10-18T17:09:19.162Z,71.89
2022-10-18T17:11:48.996Z,72.27
2022-10-18T17:14:17.550Z,72.56
2022-10-18T17:16:48.785Z,72.77
2022-10-18T17:19:21.487Z,73.04
2022-10-18T17:21:49.919Z,73.00
2022-10-18T17:24:18.349Z,72.81
2022-10-18T17:26:50.734Z,73.24
2022-10-18T17:29:19.137Z,73.49
2022-10-18T17:31:47.556Z,74.12
2022-10-18T17:34:21.148Z,74.32
2022-10-18T17:36:50.081Z,74.29
2022-10-18T17:39:18.512Z,74.41
2022-10-18T17:41:46.974Z,74.80
2022-10-18T17:44:16.905Z,74.90
2022-10-18T17:46:45.336Z,75.16
2022-10-18T17:49:15.458Z,75.19
2022-10-18T17:51:45.406Z,75.66
2022-10-18T17:54:13.855Z,75.87
2022-10-18T17:56:42.310Z,75.19
2022-10-18T17:59:11.045Z,76.00
2022-10-18T18:01:40.908Z,75.72
2022-10-18T18:04:09.370Z,75.91
2022-10-18T18:06:39.362Z,76.04
2022-10-18T18:09:10.542Z,76.01
2022-10-18T18:11:41.946Z,76.34
2022-10-18T18:14:11.075Z,76.78
2022-10-18T18:16:42.637Z,77.07
2022-10-18T18:19:12.068Z,77.23
2022-10-18T18:21:41.411Z,77.19
2022-10-18T18:24:11.022Z,77.79
2022-10-18T18:26:40.382Z,77.22
2022-10-18T18:29:09.060Z,77.13
2022-10-18T18:31:40.023Z,78.19
2022-10-18T18:34:12.654Z,77.99
2022-10-18T18:36:41.452Z,78.48
2022-10-18T18:39:17.243Z,78.54
2022-10-18T18:41:45.690Z,78.59
2022-10-18T18:44:14.183Z,78.47
2022-10-18T18:46:42.613Z,79.22
2022-10-18T18:49:12.997Z,80.03
2022-10-18T18:51:42.445Z,80.41
2022-10-18T18:54:13.768Z,79.96
2022-10-18T18:56:43.115Z,80.75
2022-10-18T18:59:13.871Z,79.50
2022-10-18T19:01:43.125Z,80.42
2022-10-18T19:04:12.964Z,80.93
2022-10-18T19:06:43.497Z,80.83
2022-10-18T19:09:19.112Z,82.26
2022-10-18T19:11:49.140Z,81.90
2022-10-18T19:14:18.017Z,82.88
2022-10-18T19:16:51.289Z,82.85
2022-10-18T19:19:22.521Z,82.46
2022-10-18T19:21:53.281Z,82.24
2022-10-18T19:24:23.526Z,82.03
2022-10-18T19:26:53.510Z,81.79
2022-10-18T19:29:23.754Z,81.35
2022-10-18T19:31:54.696Z,81.71
2022-10-18T19:34:27.430Z,81.40
2022-10-18T19:36:56.361Z,80.94
2022-10-18T19:39:26.481Z,82.05
2022-10-18T19:41:57.189Z,83.07
2022-10-18T19:44:29.065Z,81.99
2022-10-18T19:46:58.621Z,82.35
2022-10-18T19:49:28.942Z,83.74
2022-10-18T19:51:57.684Z,84.61
2022-10-18T19:54:26.801Z,82.96
2022-10-18T19:56:55.269Z,83.48
2022-10-18T19:59:24.646Z,83.00
2022-10-18T20:01:53.076Z,83.41
2022-10-18T20:04:21.502Z,84.70
2022-10-18T20:06:51.839Z,85.31
2022-10-18T20:09:21.488Z,83.98
2022-10-18T20:11:49.771Z,83.52
2022-10-18T20:14:18.278Z,83.79
2022-10-18T20:16:46.735Z,83.57
2022-10-18T20:19:15.279Z,84.30
2022-10-18T20:21:43.751Z,83.87
2022-10-18T20:24:13.501Z,84.39
2022-10-18T20:26:43.537Z,84.91
2022-10-18T20:29:12.295Z,85.33
2022-10-18T20:31:40.905Z,84.62
2022-10-18T20:34:12.875Z,84.72
2022-10-18T20:36:41.436Z,84.32
2022-10-18T20:39:10.731Z,84.35
2022-10-18T20:41:41.864Z,85.05
2022-10-18T20:44:15.871Z,85.50
2022-10-18T20:46:45.189Z,86.01
2022-10-18T20:49:16.360Z,85.89
2022-10-18T20:51:44.816Z,86.13
2022-10-18T20:54:13.920Z,86.08
2022-10-18T20:56:43.853Z,86.51
2022-10-18T20:59:12.238Z,87.00
2022-10-18T21:01:40.871Z,86.73
2022-10-18T21:04:11.236Z,86.75
2022-10-18T21:06:41.462Z,87.23
2022-10-18T21:09:12.151Z,87.23
2022-10-18T21:11:42.972Z,86.94
2022-10-18T21:14:14.864Z,85.16
2022-10-18T21:16:44.330Z,85.54
2022-10-18T21:19:14.738Z,86.24
2022-10-18T21:21:44.844Z,85.36
2022-10-18T21:24:14.315Z,86.25
2022-10-18T21:26:42.782Z,84.85
2022-10-18T21:29:15.225Z,85.40
2022-10-18T21:31:46.405Z,85.34
2022-10-18T21:34:17.347Z,85.53
2022-10-18T21:36:47.724Z,84.75
2022-10-18T21:39:18.345Z,84.38
2022-10-18T21:41:47.532Z,84.81
2022-10-18T21:44:17.819Z,84.33
2022-10-18T21:46:46.726Z,83.98
2022-10-18T21:49:15.785Z,85.66
2022-10-18T21:51:44.415Z,86.34
2022-10-18T21:54:14.746Z,84.92
2022-10-18T21:56:43.370Z,85.45
2022-10-18T21:59:12.503Z,86.79
2022-10-18T22:01:44.104Z,86.13
2022-10-18T22:04:21.422Z,86.99
2022-10-18T22:06:50.670Z,86.45
2022-10-18T22:09:19.762Z,87.23
2022-10-18T22:11:51.227Z,87.86
2022-10-18T22:14:19.714Z,88.83
2022-10-18T22:16:49.801Z,88.66
2022-10-18T22:19:18.266Z,88.51
2022-10-18T22:21:46.677Z,89.42
2022-10-18T22:24:15.142Z,88.66
2022-10-18T22:26:44.946Z,88.26
2022-10-18T22:29:15.439Z,88.98
2022-10-18T22:31:45.963Z,88.20
2022-10-18T22:34:18.620Z,89.17
2022-10-18T22:36:47.129Z,89.49
2022-10-18T22:39:16.741Z,88.87
2022-10-18T22:41:46.458Z,89.30
2022-10-18T22:44:15.658Z,89.75
2022-10-18T22:46:44.147Z,89.90
2022-10-18T22:49:13.124Z,89.75
2022-10-18T22:51:43.067Z,90.18
2022-10-18T22:54:11.649Z,89.31
2022-10-18T22:56:40.037Z,89.09
2022-10-18T22:59:08.669Z,88.85
2022-10-18T23:01:37.288Z,87.64
2022-10-18T23:04:05.883Z,88.10
2022-10-18T23:06:36.054Z,87.57
2022-10-18T23:09:08.168Z,87.04
2022-10-18T23:11:37.723Z,86.94
2022-10-18T23:14:07.415Z,86.57
2022-10-18T23:16:35.753Z,85.32
2022-10-18T23:19:04.100Z,86.75
2022-10-18T23:21:32.391Z,86.58
2022-10-18T23:24:00.849Z,86.35
2022-10-18T23:26:30.644Z,87.09
2022-10-18T23:28:59.260Z,87.18
2022-10-18T23:31:29.285Z,86.95
2022-10-18T23:34:01.154Z,87.19
2022-10-18T23:36:30.060Z,87.16
2022-10-18T23:38:58.800Z,87.33
2022-10-18T23:41:27.601Z,89.36
2022-10-18T23:43:57.560Z,88.19
2022-10-18T23:46:26.142Z,88.11
2022-10-18T23:48:54.602Z,87.47
2022-10-18T23:51:23.070Z,87.68
2022-10-18T23:53:51.508Z,87.72
2022-10-18T23:56:19.994Z,86.87
2022-10-18T23:58:48.436Z,86.04
